createdAt,value
2018-04-16T00:00:52.942Z,18.93
2018-04-16T00:03:19.667Z,18.63
2018-04-16T00:05:46.394Z,19.83
2018-04-16T00:08:13.147Z,19.47
2018-04-16T00:10:39.865Z,19.87
2018-04-16T00:13:06.606Z,20.60
2018-04-16T00:15:33.334Z,20.37
2018-04-16T00:18:00.066Z,19.43
2018-04-16T00:20:26.809Z,20.87
2018-04-16T00:22:53.525Z,18.70
2018-04-16T00:25:20.247Z,19.93
2018-04-16T00:27:46.973Z,20.00
2018-04-16T00:30:13.703Z,20.93
2018-04-16T00:32:46.057Z,21.23
2018-04-16T00:35:18.451Z,18.37
2018-04-16T00:37:50.861Z,21.10
2018-04-16T00:40:23.250Z,20.67
2018-04-16T00:42:55.691Z,21.37
2018-04-16T00:45:28.030Z,21.57
2018-04-16T00:48:00.532Z,19.90
2018-04-16T00:50:32.897Z,20.10
2018-04-16T00:53:05.283Z,20.17
2018-04-16T00:55:37.522Z,21.10
2018-04-16T00:58:09.934Z,20.57
2018-04-16T01:00:42.302Z,23.10
2018-04-16T01:03:14.838Z,20.57
2018-04-16T01:05:47.282Z,20.90
2018-04-16T01:08:19.812Z,21.70
2018-04-16T01:10:52.215Z,21.77
2018-04-16T01:13:24.676Z,20.27
2018-04-16T01:15:57.207Z,19.53
2018-04-16T01:18:29.638Z,21.40
2018-04-16T01:21:13.125Z,20.37
2018-04-16T01:23:57.742Z,20.37
2018-04-16T01:26:30.043Z,21.60
2018-04-16T01:29:02.422Z,21.43
2018-04-16T01:31:34.815Z,21.00
2018-04-16T01:34:07.302Z,19.47
2018-04-16T01:36:39.852Z,21.70
2018-04-16T01:39:12.266Z,18.77
2018-04-16T01:41:44.718Z,21.80
2018-04-16T01:44:17.192Z,21.27
2018-04-16T01:46:49.639Z,22.47
2018-04-16T01:49:21.998Z,21.27
2018-04-16T01:51:54.529Z,23.33
2018-04-16T01:54:26.879Z,23.77
2018-04-16T01:56:59.465Z,23.43
2018-04-16T01:59:31.956Z,25.03
2018-04-16T02:02:04.291Z,24.43
2018-04-16T02:04:36.667Z,23.33
2018-04-16T02:07:09.085Z,23.97
2018-04-16T02:09:41.588Z,23.87
2018-04-16T02:12:13.830Z,24.80
2018-04-16T02:14:46.207Z,24.80
2018-04-16T02:17:18.691Z,22.67
2018-04-16T02:19:51.127Z,25.27
2018-04-16T02:22:23.494Z,24.20
2018-04-16T02:25:09.999Z,24.30
2018-04-16T02:27:42.402Z,25.23
2018-04-16T02:30:28.800Z,26.10
2018-04-16T02:33:01.280Z,24.27
2018-04-16T02:35:44.833Z,25.43
2018-04-16T02:38:17.190Z,24.40
2018-04-16T02:40:49.681Z,22.47
2018-04-16T02:43:21.920Z,22.33
2018-04-16T02:45:54.309Z,22.57
2018-04-16T02:48:26.776Z,21.97
2018-04-16T02:50:59.268Z,20.90
2018-04-16T02:53:31.800Z,22.07
2018-04-16T02:56:04.068Z,22.10
2018-04-16T02:58:36.485Z,19.73
2018-04-16T03:01:08.858Z,21.60
2018-04-16T03:03:41.350Z,21.70
2018-04-16T03:06:14.058Z,20.90
2018-04-16T03:08:46.410Z,22.97
2018-04-16T03:11:19.108Z,21.87
2018-04-16T03:13:51.560Z,20.97
2018-04-16T03:16:24.047Z,21.90
2018-04-16T03:18:56.263Z,21.47
2018-04-16T03:21:28.633Z,22.00
2018-04-16T03:24:01.023Z,21.73
2018-04-16T03:26:33.392Z,22.37
2018-04-16T03:29:05.785Z,22.37
2018-04-16T03:31:38.319Z,22.93
2018-04-16T03:34:19.916Z,22.50
2018-04-16T03:36:52.454Z,23.47
2018-04-16T03:39:24.747Z,23.83
2018-04-16T03:41:57.301Z,24.67
2018-04-16T03:44:29.828Z,24.87
2018-04-16T03:47:02.338Z,26.77
2018-04-16T03:49:34.763Z,26.13
2018-04-16T03:52:09.159Z,26.97
2018-04-16T03:54:35.876Z,24.97
2018-04-16T03:57:02.580Z,24.10
2018-04-16T03:59:29.279Z,24.83
2018-04-16T04:01:55.995Z,28.10
2018-04-16T04:04:22.733Z,26.80
2018-04-16T04:06:49.444Z,26.80
2018-04-16T04:09:16.156Z,27.07
2018-04-16T04:11:42.865Z,26.27
2018-04-16T04:14:09.585Z,27.30
2018-04-16T04:16:36.316Z,26.87
2018-04-16T04:19:03.023Z,27.67
2018-04-16T04:21:29.727Z,26.73
2018-04-16T04:24:02.336Z,29.33
2018-04-16T04:26:34.847Z,29.43
2018-04-16T04:29:07.322Z,27.67
2018-04-16T04:31:34.027Z,29.33
2018-04-16T04:34:00.735Z,29.17
2018-04-16T04:36:27.439Z,28.43
2018-04-16T04:38:54.143Z,28.30
2018-04-16T04:41:20.887Z,27.47
2018-04-16T04:43:47.623Z,27.87
2018-04-16T04:46:14.331Z,27.33
2018-04-16T04:48:41.061Z,24.53
2018-04-16T04:51:07.810Z,29.10
2018-04-16T04:53:34.516Z,28.80
2018-04-16T04:56:01.232Z,27.70
2018-04-16T04:58:27.967Z,25.37
2018-04-16T05:00:54.680Z,28.00
2018-04-16T05:03:21.381Z,27.20
2018-04-16T05:05:48.096Z,26.53
2018-04-16T05:08:14.811Z,26.17
2018-04-16T05:10:41.550Z,28.37
2018-04-16T05:13:08.259Z,27.33
2018-04-16T05:15:34.966Z,25.33
2018-04-16T05:18:01.691Z,25.47
2018-04-16T05:20:28.436Z,24.80
2018-04-16T05:22:55.168Z,23.97
2018-04-16T05:25:21.871Z,24.87
2018-04-16T05:27:48.583Z,25.73
2018-04-16T05:30:15.291Z,25.33
2018-04-16T05:32:41.997Z,25.43
2018-04-16T05:35:08.727Z,25.53
2018-04-16T05:37:35.435Z,26.53
2018-04-16T05:40:02.147Z,26.50
2018-04-16T05:42:28.850Z,25.27
2018-04-16T05:44:55.590Z,24.83
2018-04-16T05:47:22.325Z,22.80
2018-04-16T05:49:49.037Z,23.63
2018-04-16T05:52:15.747Z,20.67
2018-04-16T05:54:42.455Z,21.60
2018-04-16T05:57:09.274Z,22.30
2018-04-16T05:59:36.011Z,21.37
2018-04-16T06:02:02.720Z,19.93
2018-04-16T06:04:29.426Z,20.30
2018-04-16T06:06:56.247Z,19.73
2018-04-16T06:09:22.958Z,19.63
2018-04-16T06:11:49.691Z,19.03
2018-04-16T06:14:16.422Z,18.23
2018-04-16T06:16:43.127Z,20.23
2018-04-16T06:19:09.869Z,19.20
2018-04-16T06:21:36.583Z,19.50
2018-04-16T06:24:03.319Z,18.60
2018-04-16T06:26:30.038Z,18.43
2018-04-16T06:28:56.747Z,19.40
2018-04-16T06:31:23.450Z,19.27
2018-04-16T06:33:50.165Z,20.77
2018-04-16T06:36:16.905Z,19.87
2018-04-16T06:38:43.614Z,19.50
2018-04-16T06:41:10.317Z,18.90
2018-04-16T06:43:37.023Z,17.93
2018-04-16T06:46:03.731Z,17.60
2018-04-16T06:48:30.467Z,18.27
2018-04-16T06:50:57.172Z,19.23
2018-04-16T06:53:23.883Z,19.07
2018-04-16T06:55:50.593Z,18.60
2018-04-16T06:58:17.311Z,18.90
2018-04-16T07:00:44.065Z,18.27
2018-04-16T07:03:10.848Z,17.47
2018-04-16T07:05:37.569Z,17.73
2018-04-16T07:08:04.301Z,17.60
2018-04-16T07:10:31.016Z,17.57
2018-04-16T07:12:57.756Z,17.80
2018-04-16T07:15:24.459Z,16.70
2018-04-16T07:17:51.169Z,16.23
2018-04-16T07:20:17.885Z,15.83
2018-04-16T07:22:44.759Z,15.23
2018-04-16T07:25:11.897Z,15.67
2018-04-16T07:27:38.612Z,16.87
2018-04-16T07:30:05.324Z,16.27
2018-04-16T07:32:32.129Z,15.93
2018-04-16T07:34:58.833Z,16.30
2018-04-16T07:37:25.567Z,16.10
2018-04-16T07:39:52.303Z,16.53
2018-04-16T07:42:19.011Z,16.07
2018-04-16T07:44:45.718Z,14.90
2018-04-16T07:47:12.435Z,15.03
2018-04-16T07:49:39.173Z,15.70
2018-04-16T07:52:05.876Z,16.73
2018-04-16T07:54:32.583Z,16.17
2018-04-16T07:56:59.302Z,15.03
2018-04-16T07:59:26.027Z,15.67
2018-04-16T08:01:52.752Z,15.00
2018-04-16T08:04:19.479Z,16.13
2018-04-16T08:06:46.210Z,15.00
2018-04-16T08:09:13.144Z,15.37
2018-04-16T08:11:39.847Z,16.00
2018-04-16T08:14:06.599Z,14.40
2018-04-16T08:16:33.307Z,15.20
2018-04-16T08:19:00.035Z,14.60
2018-04-16T08:21:26.747Z,14.03
2018-04-16T08:23:53.455Z,13.83
2018-04-16T08:26:20.186Z,13.33
2018-04-16T08:28:46.895Z,14.57
2018-04-16T08:31:13.612Z,14.77
2018-04-16T08:33:40.336Z,12.80
2018-04-16T08:36:07.043Z,13.50
2018-04-16T08:38:33.780Z,13.37
2018-04-16T08:41:00.484Z,14.27
2018-04-16T08:43:27.208Z,12.97
2018-04-16T08:45:53.924Z,13.17
2018-04-16T08:48:20.661Z,12.97
2018-04-16T08:50:47.395Z,14.07
2018-04-16T08:53:14.108Z,13.70
2018-04-16T08:55:40.821Z,14.57
2018-04-16T08:58:07.529Z,12.77
2018-04-16T09:00:34.299Z,13.07
2018-04-16T09:03:01.015Z,14.33
2018-04-16T09:05:27.719Z,13.80
2018-04-16T09:07:54.681Z,15.00
2018-04-16T09:10:21.395Z,13.20
2018-04-16T09:12:48.116Z,14.13
2018-04-16T09:15:14.850Z,13.63
2018-04-16T09:17:41.584Z,14.50
2018-04-16T09:20:08.287Z,14.83
2018-04-16T09:22:34.997Z,13.90
2018-04-16T09:25:01.727Z,13.60
2018-04-16T09:27:28.471Z,12.97
2018-04-16T09:29:55.183Z,13.33
2018-04-16T09:32:21.909Z,13.27
2018-04-16T09:34:48.622Z,13.20
2018-04-16T09:37:15.338Z,13.13
2018-04-16T09:39:42.067Z,13.33
2018-04-16T09:42:08.775Z,14.27
2018-04-16T09:44:35.480Z,13.17
2018-04-16T09:47:02.187Z,14.47
2018-04-16T09:49:28.924Z,13.90
2018-04-16T09:51:55.643Z,13.50
2018-04-16T09:54:22.351Z,13.87
2018-04-16T09:56:49.057Z,13.00
2018-04-16T09:59:15.787Z,13.80
2018-04-16T10:01:42.496Z,13.97
2018-04-16T10:04:09.207Z,12.37
2018-04-16T10:06:35.915Z,13.17
2018-04-16T10:09:02.647Z,12.70
2018-04-16T10:11:29.387Z,13.23
2018-04-16T10:13:56.091Z,12.77
2018-04-16T10:16:22.799Z,13.20
2018-04-16T10:18:49.508Z,13.97
2018-04-16T10:21:16.239Z,13.57
2018-04-16T10:23:42.954Z,12.67
2018-04-16T10:26:09.677Z,13.30
2018-04-16T10:28:36.383Z,13.83
2018-04-16T10:31:03.096Z,15.03
2018-04-16T10:33:29.851Z,13.73
2018-04-16T10:35:56.576Z,14.63
2018-04-16T10:38:23.279Z,13.97
2018-04-16T10:40:49.987Z,13.43
2018-04-16T10:43:16.699Z,13.47
2018-04-16T10:45:43.419Z,12.83
2018-04-16T10:48:10.126Z,13.00
2018-04-16T10:50:36.869Z,13.87
2018-04-16T10:53:03.578Z,14.27
2018-04-16T10:55:30.291Z,14.90
2018-04-16T10:57:57.006Z,14.03
2018-04-16T11:00:23.715Z,13.63
2018-04-16T11:02:50.448Z,13.43
2018-04-16T11:05:17.157Z,13.87
2018-04-16T11:07:43.863Z,13.37
2018-04-16T11:10:10.595Z,14.87
2018-04-16T11:12:37.299Z,15.57
2018-04-16T11:15:04.015Z,16.80
2018-04-16T11:17:30.760Z,15.97
2018-04-16T11:19:57.464Z,16.23
2018-04-16T11:22:24.175Z,16.90
2018-04-16T11:24:50.881Z,16.37
2018-04-16T11:27:17.588Z,17.23
2018-04-16T11:29:44.315Z,17.33
2018-04-16T11:32:11.026Z,17.10
2018-04-16T11:34:37.752Z,17.63
2018-04-16T11:37:04.467Z,17.23
2018-04-16T11:39:31.183Z,16.73
2018-04-16T11:41:57.940Z,16.23
2018-04-16T11:44:24.669Z,16.97
2018-04-16T11:46:51.373Z,16.80
2018-04-16T11:49:18.092Z,15.90
2018-04-16T11:51:44.799Z,17.23
2018-04-16T11:54:11.525Z,17.20
2018-04-16T11:56:38.232Z,16.00
2018-04-16T11:59:04.939Z,16.53
2018-04-16T12:01:31.650Z,16.00
2018-04-16T12:03:58.355Z,15.40
2018-04-16T12:06:25.382Z,15.77
2018-04-16T12:08:52.092Z,16.50
2018-04-16T12:11:18.800Z,16.70
2018-04-16T12:13:45.592Z,15.37
2018-04-16T12:16:12.308Z,15.30
2018-04-16T12:18:39.070Z,15.20
2018-04-16T12:21:05.800Z,15.43
2018-04-16T12:23:32.511Z,13.60
2018-04-16T12:25:59.228Z,12.43
2018-04-16T12:28:25.934Z,13.67
2018-04-16T12:30:52.667Z,13.97
2018-04-16T12:33:19.394Z,14.07
2018-04-16T12:35:46.113Z,14.57
2018-04-16T12:38:12.847Z,14.40
2018-04-16T12:40:39.565Z,14.67
2018-04-16T12:43:06.647Z,15.50
2018-04-16T12:45:33.355Z,15.43
2018-04-16T12:48:00.128Z,14.63
2018-04-16T12:50:26.807Z,15.63
2018-04-16T12:52:53.515Z,14.17
2018-04-16T12:55:20.265Z,14.20
2018-04-16T12:57:47.000Z,16.13
2018-04-16T13:00:13.706Z,15.17
2018-04-16T13:02:40.413Z,15.63
2018-04-16T13:05:07.139Z,14.87
2018-04-16T13:07:33.863Z,15.20
2018-04-16T13:10:00.578Z,15.10
2018-04-16T13:12:27.287Z,13.93
2018-04-16T13:14:53.989Z,14.20
2018-04-16T13:17:20.704Z,12.90
2018-04-16T13:19:47.447Z,13.93
2018-04-16T13:22:14.417Z,13.63
2018-04-16T13:24:41.133Z,12.43
2018-04-16T13:27:07.847Z,13.47
2018-04-16T13:29:34.563Z,13.30
2018-04-16T13:32:01.583Z,13.50
2018-04-16T13:34:28.291Z,14.43
2018-04-16T13:36:55.006Z,14.33
2018-04-16T13:39:21.712Z,13.03
2018-04-16T13:41:48.413Z,12.67
2018-04-16T13:44:15.147Z,13.17
2018-04-16T13:46:41.848Z,13.37
2018-04-16T13:49:08.564Z,12.40
2018-04-16T13:51:35.275Z,12.70
2018-04-16T13:54:02.008Z,12.27
2018-04-16T13:56:28.744Z,11.90
2018-04-16T13:58:55.450Z,12.23
2018-04-16T14:01:22.156Z,12.43
2018-04-16T14:03:48.872Z,11.37
2018-04-16T14:06:15.575Z,11.87
2018-04-16T14:08:42.307Z,11.80
2018-04-16T14:11:09.023Z,23.43
2018-04-16T14:13:35.731Z,13.50
2018-04-16T14:16:02.437Z,12.97
2018-04-16T14:18:29.145Z,13.47
2018-04-16T14:20:55.888Z,13.10
2018-04-16T14:23:22.603Z,13.47
2018-04-16T14:25:49.316Z,11.83
2018-04-16T14:28:16.031Z,11.97
2018-04-16T14:30:42.828Z,12.90
2018-04-16T14:33:10.212Z,11.90
2018-04-16T14:35:36.940Z,11.53
2018-04-16T14:38:03.658Z,11.60
2018-04-16T14:40:30.405Z,11.70
2018-04-16T14:42:57.144Z,11.70
2018-04-16T14:45:23.878Z,10.90
2018-04-16T14:47:50.592Z,11.33
2018-04-16T14:50:17.299Z,9.83
2018-04-16T14:52:44.007Z,9.77
2018-04-16T14:55:10.709Z,9.37
2018-04-16T14:57:37.446Z,9.47
2018-04-16T15:00:04.152Z,9.53
2018-04-16T15:02:31.068Z,8.83
2018-04-16T15:04:57.779Z,8.57
2018-04-16T15:07:24.476Z,8.43
2018-04-16T15:09:51.206Z,9.53
2018-04-16T15:12:17.914Z,9.47
2018-04-16T15:14:44.616Z,7.50
2018-04-16T15:17:11.319Z,9.80
2018-04-16T15:19:38.037Z,10.23
2018-04-16T15:22:04.775Z,9.07
2018-04-16T15:24:31.482Z,9.53
2018-04-16T15:26:58.247Z,10.00
2018-04-16T15:29:24.966Z,10.07
2018-04-16T15:31:51.748Z,9.70
2018-04-16T15:34:18.479Z,9.77
2018-04-16T15:36:45.190Z,10.50
2018-04-16T15:39:11.906Z,10.80
2018-04-16T15:41:38.611Z,9.27
2018-04-16T15:44:05.319Z,10.10
2018-04-16T15:46:32.045Z,9.40
2018-04-16T15:48:58.748Z,10.33
2018-04-16T15:51:25.455Z,10.07
2018-04-16T15:53:52.175Z,9.10
2018-04-16T15:56:18.878Z,9.30
2018-04-16T15:58:45.622Z,8.57
2018-04-16T16:01:12.368Z,9.30
2018-04-16T16:03:39.072Z,9.37
2018-04-16T16:06:05.779Z,10.20
2018-04-16T16:08:32.476Z,9.63
2018-04-16T16:10:59.208Z,9.33
2018-04-16T16:13:25.909Z,9.70
2018-04-16T16:15:52.618Z,9.30
2018-04-16T16:18:19.315Z,9.57
2018-04-16T16:20:46.052Z,9.93
2018-04-16T16:23:12.783Z,8.90
2018-04-16T16:25:39.494Z,8.77
2018-04-16T16:28:06.187Z,9.30
2018-04-16T16:30:32.890Z,11.00
2018-04-16T16:32:59.595Z,11.23
2018-04-16T16:35:26.323Z,10.97
2018-04-16T16:37:53.099Z,11.47
2018-04-16T16:40:19.889Z,11.60
2018-04-16T16:42:47.552Z,12.50
2018-04-16T16:45:14.318Z,12.33
2018-04-16T16:47:47.569Z,11.57
2018-04-16T16:50:17.138Z,11.43
2018-04-16T16:52:43.900Z,11.20
2018-04-16T16:55:10.609Z,11.43
2018-04-16T16:57:37.324Z,11.93
2018-04-16T17:00:04.063Z,10.87
2018-04-16T17:02:30.780Z,11.83
2018-04-16T17:04:57.486Z,11.07
2018-04-16T17:07:24.190Z,10.53
2018-04-16T17:09:50.903Z,10.60
2018-04-16T17:12:17.644Z,10.73
2018-04-16T17:14:44.523Z,10.17
2018-04-16T17:17:11.236Z,10.67
2018-04-16T17:19:37.948Z,10.63
2018-04-16T17:22:04.673Z,10.23
2018-04-16T17:24:32.417Z,9.73
2018-04-16T17:26:59.123Z,9.87
2018-04-16T17:29:25.889Z,9.13
2018-04-16T17:31:52.584Z,9.53
2018-04-16T17:34:19.300Z,8.87
2018-04-16T17:36:46.034Z,9.57
2018-04-16T17:39:12.740Z,8.93
2018-04-16T17:41:39.456Z,8.47
2018-04-16T17:44:06.163Z,8.10
2018-04-16T17:46:32.863Z,8.10
2018-04-16T17:48:59.567Z,7.73
2018-04-16T17:51:26.268Z,7.40
2018-04-16T17:53:52.977Z,6.90
2018-04-16T17:56:19.688Z,7.07
2018-04-16T17:58:46.412Z,7.57
2018-04-16T18:01:13.123Z,7.07
2018-04-16T18:03:39.836Z,7.37
2018-04-16T18:06:06.560Z,6.90
2018-04-16T18:08:33.268Z,7.00
2018-04-16T18:10:59.980Z,7.83
2018-04-16T18:13:26.707Z,7.47
2018-04-16T18:15:53.420Z,7.40
2018-04-16T18:18:20.127Z,7.43
2018-04-16T18:20:46.823Z,7.57
2018-04-16T18:23:13.523Z,6.57
2018-04-16T18:25:40.253Z,6.17
2018-04-16T18:28:06.964Z,6.97
2018-04-16T18:30:34.621Z,7.30
2018-04-16T18:33:02.209Z,6.90
2018-04-16T18:35:29.007Z,7.23
2018-04-16T18:37:55.727Z,6.73
2018-04-16T18:40:22.427Z,6.47
2018-04-16T18:42:49.121Z,5.67
2018-04-16T18:45:15.832Z,6.53
2018-04-16T18:47:42.527Z,6.30
2018-04-16T18:50:09.256Z,6.30
2018-04-16T18:52:35.961Z,6.77
2018-04-16T18:55:02.668Z,6.80
2018-04-16T18:57:29.373Z,6.10
2018-04-16T18:59:56.083Z,6.37
2018-04-16T19:02:22.810Z,6.70
2018-04-16T19:04:49.511Z,6.80
2018-04-16T19:07:16.204Z,6.63
2018-04-16T19:09:42.944Z,7.10
2018-04-16T19:12:09.919Z,6.07
2018-04-16T19:14:36.641Z,5.77
2018-04-16T19:17:03.339Z,6.30
2018-04-16T19:19:30.035Z,6.13
2018-04-16T19:21:56.731Z,6.37
2018-04-16T19:24:23.460Z,6.77
2018-04-16T19:26:55.766Z,5.57
2018-04-16T19:29:22.465Z,6.00
2018-04-16T19:31:49.164Z,5.87
2018-04-16T19:34:21.700Z,6.47
2018-04-16T19:36:48.480Z,6.07
2018-04-16T19:39:15.175Z,6.00
2018-04-16T19:41:47.564Z,5.97
2018-04-16T19:44:14.259Z,6.80
2018-04-16T19:46:40.967Z,6.60
2018-04-16T19:49:13.378Z,6.30
2018-04-16T19:51:40.080Z,6.23
2018-04-16T19:54:06.830Z,6.23
2018-04-16T19:56:39.167Z,6.93
2018-04-16T19:59:05.884Z,6.40
2018-04-16T20:01:32.599Z,6.80
2018-04-16T20:04:01.036Z,5.77
2018-04-16T20:06:27.735Z,6.10
2018-04-16T20:08:54.439Z,6.13
2018-04-16T20:11:21.135Z,5.70
2018-04-16T20:13:47.843Z,6.80
2018-04-16T20:16:14.567Z,6.37
2018-04-16T20:18:41.264Z,6.00
2018-04-16T20:21:07.963Z,6.70
2018-04-16T20:23:34.669Z,6.23
2018-04-16T20:26:01.376Z,5.87
2018-04-16T20:28:28.092Z,6.23
2018-04-16T20:30:54.798Z,6.33
2018-04-16T20:33:21.498Z,6.43
2018-04-16T20:35:48.203Z,5.90
2018-04-16T20:38:14.899Z,5.53
2018-04-16T20:40:41.616Z,6.50
2018-04-16T20:43:08.307Z,6.00
2018-04-16T20:45:35.011Z,9.53
2018-04-16T20:48:01.715Z,7.87
2018-04-16T20:50:28.412Z,6.00
2018-04-16T20:52:55.135Z,6.57
2018-04-16T20:55:21.843Z,6.93
2018-04-16T20:57:49.199Z,6.50
2018-04-16T21:00:15.900Z,7.30
2018-04-16T21:02:42.616Z,6.70
2018-04-16T21:05:09.555Z,6.80
2018-04-16T21:07:36.232Z,6.40
2018-04-16T21:10:02.916Z,6.67
2018-04-16T21:12:29.614Z,5.80
2018-04-16T21:14:56.304Z,6.37
2018-04-16T21:17:23.026Z,6.23
2018-04-16T21:19:49.710Z,6.10
2018-04-16T21:22:16.392Z,6.60
2018-04-16T21:24:43.075Z,6.13
2018-04-16T21:27:09.770Z,6.27
2018-04-16T21:29:43.448Z,5.37
2018-04-16T21:32:10.170Z,6.70
2018-04-16T21:34:37.031Z,6.20
2018-04-16T21:37:04.141Z,7.17
2018-04-16T21:39:31.118Z,6.30
2018-04-16T21:41:58.076Z,6.37
2018-04-16T21:44:24.767Z,6.00
2018-04-16T21:46:51.443Z,6.50
2018-04-16T21:49:18.134Z,6.10
2018-04-16T21:51:44.826Z,6.10
2018-04-16T21:54:11.531Z,5.90
2018-04-16T21:56:38.212Z,6.83
2018-04-16T21:59:04.884Z,6.50
2018-04-16T22:01:31.565Z,6.20
2018-04-16T22:03:58.260Z,6.17
2018-04-16T22:06:24.969Z,6.80
2018-04-16T22:08:51.669Z,6.10
2018-04-16T22:11:18.347Z,6.60
2018-04-16T22:13:45.023Z,6.33
2018-04-16T22:16:11.699Z,6.37
2018-04-16T22:18:38.409Z,5.87
2018-04-16T22:21:05.132Z,6.40
2018-04-16T22:23:31.792Z,6.07
2018-04-16T22:25:58.459Z,6.40
2018-04-16T22:28:25.194Z,6.47
2018-04-16T22:30:51.904Z,5.60
2018-04-16T22:33:18.622Z,6.00
2018-04-16T22:35:45.317Z,5.90
2018-04-16T22:38:12.016Z,5.83
2018-04-16T22:40:38.747Z,6.13
2018-04-16T22:43:07.415Z,6.53
2018-04-16T22:45:34.151Z,6.53
2018-04-16T22:48:00.859Z,6.70
2018-04-16T22:50:27.568Z,5.97
2018-04-16T22:52:54.300Z,5.67
2018-04-16T22:55:21.060Z,5.90
2018-04-16T22:57:47.763Z,6.03
2018-04-16T23:00:14.491Z,5.63
2018-04-16T23:02:41.255Z,5.73
2018-04-16T23:05:07.951Z,6.23
2018-04-16T23:07:34.672Z,6.13
2018-04-16T23:10:01.367Z,5.90
2018-04-16T23:12:29.365Z,5.83
2018-04-16T23:14:56.076Z,6.70
2018-04-16T23:17:22.771Z,5.90
2018-04-16T23:19:49.493Z,6.23
2018-04-16T23:22:16.196Z,5.83
2018-04-16T23:24:42.887Z,5.60
2018-04-16T23:27:09.621Z,6.07
2018-04-16T23:29:36.316Z,6.50
2018-04-16T23:32:03.055Z,5.97
2018-04-16T23:34:29.764Z,5.67
2018-04-16T23:36:56.464Z,5.90
2018-04-16T23:39:23.178Z,6.33
2018-04-16T23:41:49.887Z,5.80
2018-04-16T23:44:16.607Z,6.17
2018-04-16T23:46:43.303Z,6.47
2018-04-16T23:49:10.004Z,6.30
2018-04-16T23:51:36.710Z,5.57
2018-04-16T23:54:03.432Z,6.80
2018-04-16T23:56:30.162Z,5.63
2018-04-16T23:58:56.859Z,5.90
